Terminal Aerodrome Forecast
Issued by NWS

Home | Current Version | Previous Version | Graphics & Text | Print | Product List | Glossary On
Versions: 1 2 3 4 5 6 7 8 9 10 11 12 13 14 15 16 17 18 19 20
460
FTUS43 KUNR 261600 AAB
TAFGCC
TAF AMD
KGCC 261600Z 2616/2712 VRB05KT P6SM OVC007
      TEMPO 2616/2618 SCT007
     FM261800 VRB05KT P6SM SCT020
     FM270100 15007KT P6SM SCT100=

USA.gov is the U.S. government's official web portal to all federal, state and local government web resources and services.